Time;durP1;ratioP1;P1;durP2;ratioP2;P2;SDS_P1;SDS_P2;PMS_P1;PMS_P2;Temp;Humidity;BMP_temperature;BMP_pressure;BME280_temperature;BME280_humidity;BME280_pressure;Samples;Min_cycle;Max_cycle;Signal;HPM_P1;HPM_P2
2022/04/24 00:01:47;;;;;;;11.25;8.55;;;10.90;69.50;;;;;;5049719;28;20049;-66
2022/04/24 00:04:13;;;;;;;12.70;9.23;;;10.80;69.70;;;;;;5049001;28;20500;-66
2022/04/24 00:06:39;;;;;;;9.05;8.05;;;10.80;69.70;;;;;;5048122;28;20045;-66
2022/04/24 00:09:05;;;;;;;11.18;9.10;;;10.70;69.50;;;;;;5049280;28;20091;-66
2022/04/24 00:11:31;;;;;;;13.05;8.02;;;10.80;69.60;;;;;;5048704;28;20056;-67
2022/04/24 00:13:57;;;;;;;10.35;8.80;;;10.70;69.70;;;;;;5049182;28;20053;-67
2022/04/24 00:16:22;;;;;;;10.23;8.15;;;10.70;69.70;;;;;;5049266;28;20454;-66
2022/04/24 00:18:48;;;;;;;12.70;8.57;;;10.70;69.60;;;;;;5049087;28;20053;-65
2022/04/24 00:21:14;;;;;;;9.80;7.43;;;10.70;69.50;;;;;;5048663;28;20044;-66
2022/04/24 00:23:39;;;;;;;11.43;7.65;;;10.60;69.50;;;;;;5048919;28;20079;-66
2022/04/24 00:26:05;;;;;;;13.95;7.68;;;10.60;69.50;;;;;;5049138;28;20462;-65
2022/04/24 00:28:31;;;;;;;11.05;7.90;;;10.60;69.50;;;;;;5048793;28;20094;-66
2022/04/24 00:30:57;;;;;;;10.93;7.95;;;10.60;69.30;;;;;;5049072;28;20045;-65
2022/04/24 00:33:23;;;;;;;12.85;7.47;;;10.60;69.20;;;;;;5048895;28;20041;-66
2022/04/24 00:35:48;;;;;;;10.00;7.18;;;10.60;69.40;;;;;;5048947;28;20049;-65
2022/04/24 00:38:14;;;;;;;10.52;7.60;;;10.60;69.30;;;;;;5049027;28;20521;-66
2022/04/24 00:40:40;;;;;;;10.48;7.10;;;10.50;69.50;;;;;;5049043;28;20390;-65
2022/04/24 00:43:06;;;;;;;9.75;6.72;;;10.50;69.30;;;;;;5048940;28;20049;-65
2022/04/24 00:45:31;;;;;;;8.23;6.97;;;10.40;69.40;;;;;;5048920;28;20037;-66
2022/04/24 00:47:57;;;;;;;9.65;6.55;;;10.40;69.50;;;;;;5048881;28;20521;-66
2022/04/24 00:50:23;;;;;;;7.38;6.30;;;10.30;69.50;;;;;;5049074;28;20657;-66
2022/04/24 00:52:49;;;;;;;8.32;6.40;;;10.40;69.40;;;;;;5050731;28;20041;-66
2022/04/24 00:55:21;;;;;;;11.40;7.28;;;10.40;69.50;;;;;;5052257;28;20441;-65
2022/04/24 00:57:46;;;;;;;12.50;7.00;;;10.40;69.50;;;;;;5052811;28;20044;-65
2022/04/24 01:00:13;;;;;;;13.63;7.97;;;10.30;69.60;;;;;;5052618;28;20401;-66
2022/04/24 01:02:39;;;;;;;9.25;7.40;;;10.20;69.70;;;;;;5053043;28;20041;-66
2022/04/24 01:05:06;;;;;;;9.43;7.38;;;10.20;69.80;;;;;;5052804;28;20408;-66
2022/04/24 01:07:32;;;;;;;11.00;7.35;;;10.20;69.80;;;;;;5053045;28;20091;-66
2022/04/24 01:09:58;;;;;;;13.68;7.28;;;10.10;69.90;;;;;;5052691;28;20433;-65
2022/04/24 01:12:23;;;;;;;7.80;6.43;;;10.10;69.90;;;;;;5051630;28;20053;-66
2022/04/24 01:14:49;;;;;;;10.02;7.20;;;10.10;70.00;;;;;;5051715;28;20060;-66
2022/04/24 01:17:14;;;;;;;10.32;6.72;;;10.10;70.00;;;;;;5052662;28;20044;-66
2022/04/24 01:19:40;;;;;;;8.60;6.15;;;10.10;70.00;;;;;;5052335;28;20095;-66
2022/04/24 01:22:06;;;;;;;9.88;6.43;;;10.00;70.20;;;;;;5052250;28;20086;-66
2022/04/24 01:24:31;;;;;;;8.85;7.05;;;10.00;70.20;;;;;;5052612;28;20036;-66
2022/04/24 01:26:57;;;;;;;9.75;6.82;;;9.90;70.20;;;;;;5052903;28;20037;-66
2022/04/24 01:29:24;;;;;;;8.40;6.57;;;9.90;70.40;;;;;;5052462;28;20456;-65
2022/04/24 01:31:50;;;;;;;10.48;6.88;;;9.80;70.50;;;;;;5052431;28;20041;-67
2022/04/24 01:34:16;;;;;;;9.55;6.90;;;9.80;70.70;;;;;;5052215;28;20087;-65
2022/04/24 01:36:42;;;;;;;7.95;5.90;;;9.80;71.00;;;;;;5052403;28;20051;-67
2022/04/24 01:39:08;;;;;;;9.40;7.15;;;9.70;71.00;;;;;;5052310;28;20033;-65
2022/04/24 01:41:35;;;;;;;13.40;6.93;;;9.80;70.90;;;;;;5052285;28;20410;-65
2022/04/24 01:44:00;;;;;;;8.40;6.88;;;9.80;70.80;;;;;;5052112;28;20044;-66
2022/04/24 01:46:26;;;;;;;9.35;7.45;;;9.70;71.00;;;;;;5052173;28;20048;-66
2022/04/24 01:48:52;;;;;;;9.75;6.55;;;9.70;70.90;;;;;;5051569;28;20063;-66
2022/04/24 01:51:17;;;;;;;7.78;6.32;;;9.60;70.90;;;;;;5034234;28;20052;-66
2022/04/24 01:53:44;;;;;;;9.70;7.45;;;9.60;71.20;;;;;;5051404;28;20053;-66
2022/04/24 01:56:11;;;;;;;9.40;6.88;;;9.60;71.20;;;;;;5051915;28;20505;-66
2022/04/24 01:58:38;;;;;;;8.80;6.65;;;9.60;71.20;;;;;;5052022;28;20080;-66
2022/04/24 02:01:04;;;;;;;6.93;5.97;;;9.50;71.30;;;;;;5051789;28;20049;-66
2022/04/24 02:03:31;;;;;;;11.45;6.95;;;9.50;71.50;;;;;;5051820;28;20043;-65
2022/04/24 02:05:57;;;;;;;7.90;6.45;;;9.50;71.40;;;;;;5050430;28;20102;-66
2022/04/24 02:08:24;;;;;;;8.52;6.72;;;9.40;71.60;;;;;;5051539;28;20045;-65
2022/04/24 02:10:49;;;;;;;10.50;7.13;;;9.40;71.70;;;;;;5051540;28;20049;-65
2022/04/24 02:13:15;;;;;;;10.63;7.22;;;9.40;71.60;;;;;;5051220;28;20114;-66
2022/04/24 02:15:41;;;;;;;10.40;6.03;;;9.30;71.50;;;;;;5051428;28;20041;-66
2022/04/24 02:18:07;;;;;;;7.82;6.10;;;9.40;71.50;;;;;;5051651;28;20040;-65
2022/04/24 02:20:33;;;;;;;8.88;6.20;;;9.30;71.40;;;;;;5051261;28;20121;-65
2022/04/24 02:22:59;;;;;;;7.85;6.40;;;9.30;71.70;;;;;;5051396;28;20037;-65
2022/04/24 02:25:25;;;;;;;7.63;6.75;;;9.30;71.60;;;;;;5051184;28;20052;-66
2022/04/24 02:27:55;;;;;;;10.98;7.28;;;9.30;71.50;;;;;;5051541;28;20091;-66
2022/04/24 02:30:22;;;;;;;12.35;6.82;;;9.20;71.40;;;;;;5051140;28;20053;-65
2022/04/24 02:32:48;;;;;;;9.80;7.07;;;9.20;71.30;;;;;;5050488;28;20501;-66
2022/04/24 02:35:14;;;;;;;9.23;6.80;;;9.20;71.50;;;;;;5051057;28;20126;-67
2022/04/24 02:37:40;;;;;;;9.02;7.55;;;9.20;71.30;;;;;;5051280;28;20045;-65
2022/04/24 02:40:09;;;;;;;9.63;7.40;;;9.10;71.50;;;;;;5050693;28;20048;-66
2022/04/24 02:42:36;;;;;;;7.68;6.35;;;9.20;71.50;;;;;;5049366;28;20033;-66
2022/04/24 02:45:07;;;;;;;8.77;6.78;;;9.20;71.30;;;;;;5050587;28;20045;-66
2022/04/24 02:47:33;;;;;;;9.40;6.82;;;9.20;71.30;;;;;;5050698;28;20110;-65
2022/04/24 02:49:59;;;;;;;7.95;6.55;;;9.10;71.50;;;;;;5049338;28;20849;-65
2022/04/24 02:52:25;;;;;;;9.75;7.28;;;9.00;71.70;;;;;;5050276;28;20041;-65
2022/04/24 02:54:51;;;;;;;13.35;7.00;;;9.00;71.80;;;;;;5050551;28;20045;-66
2022/04/24 02:57:16;;;;;;;11.00;7.00;;;9.00;72.00;;;;;;5050590;28;20475;-66
2022/04/24 02:59:45;;;;;;;10.63;7.60;;;9.00;71.90;;;;;;5050556;28;20525;-66
2022/04/24 03:02:14;;;;;;;11.55;6.90;;;9.00;72.00;;;;;;5049982;28;20041;-66
2022/04/24 03:04:39;;;;;;;9.07;6.78;;;8.90;72.10;;;;;;5049277;28;20080;-66
2022/04/24 03:07:06;;;;;;;9.07;6.35;;;9.00;72.00;;;;;;5050491;28;20090;-66
2022/04/24 03:09:32;;;;;;;8.98;7.32;;;8.90;72.10;;;;;;5050481;28;20049;-66
2022/04/24 03:11:58;;;;;;;9.05;6.78;;;8.90;72.10;;;;;;5050478;28;20102;-66
2022/04/24 03:14:23;;;;;;;8.57;7.03;;;8.90;72.20;;;;;;5049513;28;20440;-66
2022/04/24 03:16:49;;;;;;;8.90;7.00;;;8.90;72.00;;;;;;5049860;28;20761;-65
2022/04/24 03:19:15;;;;;;;12.40;6.90;;;8.90;71.90;;;;;;5050330;28;20123;-65
2022/04/24 03:21:40;;;;;;;9.57;6.55;;;8.80;72.10;;;;;;5050440;28;20816;-66
2022/04/24 03:24:06;;;;;;;9.20;6.43;;;8.80;72.30;;;;;;5050047;28;20049;-66
2022/04/24 03:26:32;;;;;;;13.18;7.20;;;8.80;72.40;;;;;;5049434;28;20402;-66
2022/04/24 03:28:57;;;;;;;8.13;6.60;;;8.80;72.30;;;;;;5050081;28;20450;-65
2022/04/24 03:31:24;;;;;;;9.90;7.28;;;8.70;72.40;;;;;;5050220;28;20371;-66
2022/04/24 03:33:52;;;;;;;12.30;7.60;;;8.70;72.60;;;;;;5049942;28;20052;-66
2022/04/24 03:36:18;;;;;;;9.82;6.80;;;8.70;72.40;;;;;;5049997;28;20517;-65
2022/04/24 03:38:43;;;;;;;9.57;6.50;;;8.80;72.40;;;;;;5048053;28;20080;-66
2022/04/24 03:41:09;;;;;;;13.38;7.47;;;8.70;72.70;;;;;;5049837;28;20040;-66
2022/04/24 03:43:34;;;;;;;8.68;6.38;;;8.70;72.70;;;;;;5049778;28;20048;-66
2022/04/24 03:46:00;;;;;;;8.40;6.50;;;8.60;72.70;;;;;;5049896;28;20116;-65
2022/04/24 03:48:26;;;;;;;13.07;6.63;;;8.60;72.70;;;;;;5050038;28;20045;-66
2022/04/24 03:50:52;;;;;;;9.00;6.55;;;8.70;72.80;;;;;;5049690;28;20073;-65
2022/04/24 03:53:18;;;;;;;12.32;6.80;;;8.60;73.00;;;;;;5049008;28;20033;-66
2022/04/24 03:55:45;;;;;;;10.95;6.60;;;8.60;73.10;;;;;;5049533;28;20049;-66
2022/04/24 03:58:11;;;;;;;9.40;6.90;;;8.60;73.00;;;;;;5049415;28;20482;-66
2022/04/24 04:00:37;;;;;;;8.43;5.97;;;8.60;72.90;;;;;;5049410;28;20525;-66
2022/04/24 04:03:03;;;;;;;11.18;7.13;;;8.60;73.20;;;;;;5049598;28;20056;-65
2022/04/24 04:05:29;;;;;;;10.07;6.50;;;8.50;73.10;;;;;;5049005;28;20192;-65
2022/04/24 04:07:55;;;;;;;9.60;6.68;;;8.60;73.10;;;;;;5049504;28;20088;-65
2022/04/24 04:10:22;;;;;;;8.38;6.50;;;8.60;73.20;;;;;;5049050;28;20060;-66
2022/04/24 04:12:49;;;;;;;8.40;6.82;;;8.50;73.30;;;;;;5049040;28;20064;-65
2022/04/24 04:15:15;;;;;;;12.85;7.50;;;8.50;73.30;;;;;;5048646;28;20140;-65
2022/04/24 04:17:40;;;;;;;8.18;6.00;;;8.50;73.40;;;;;;5049034;28;20568;-65
2022/04/24 04:20:11;;;;;;;8.93;6.63;;;8.40;73.60;;;;;;5049194;28;20036;-65
2022/04/24 04:22:51;;;;;;;10.20;7.28;;;8.50;73.70;;;;;;5048923;28;20045;-66
2022/04/24 04:25:18;;;;;;;10.27;6.93;;;8.50;73.70;;;;;;5048730;28;20041;-65
2022/04/24 04:27:44;;;;;;;10.80;6.72;;;8.40;73.70;;;;;;5047270;28;20059;-65
2022/04/24 04:30:10;;;;;;;14.75;6.10;;;8.50;73.70;;;;;;5048688;28;20049;-65
2022/04/24 04:32:36;;;;;;;13.18;7.25;;;8.40;73.80;;;;;;5048903;28;20047;-66
2022/04/24 04:35:02;;;;;;;8.25;6.15;;;8.40;73.80;;;;;;5047452;28;20045;-66
2022/04/24 04:37:28;;;;;;;8.32;6.22;;;8.40;73.80;;;;;;5048324;28;20049;-66
2022/04/24 04:39:54;;;;;;;11.45;6.82;;;8.40;73.90;;;;;;5048993;28;20045;-65
2022/04/24 04:42:19;;;;;;;8.15;6.18;;;8.40;73.90;;;;;;5048807;28;20045;-65
2022/04/24 04:44:45;;;;;;;8.65;6.80;;;8.40;74.00;;;;;;5048571;28;20060;-66
2022/04/24 04:47:10;;;;;;;9.48;6.25;;;8.40;74.00;;;;;;5047388;28;20033;-66
2022/04/24 04:49:36;;;;;;;10.02;6.40;;;8.40;74.30;;;;;;5048420;28;20052;-66
2022/04/24 04:52:02;;;;;;;7.95;6.50;;;8.40;74.00;;;;;;5048028;28;20049;-65
2022/04/24 04:54:27;;;;;;;9.38;6.15;;;8.40;73.90;;;;;;5048794;28;20045;-65
2022/04/24 04:56:53;;;;;;;6.45;5.55;;;8.40;74.00;;;;;;5048672;28;20060;-66
2022/04/24 04:59:18;;;;;;;16.02;6.72;;;8.40;74.00;;;;;;5048492;28;20053;-66
2022/04/24 05:01:44;;;;;;;7.30;5.60;;;8.40;74.00;;;;;;5048106;28;20510;-65
2022/04/24 05:04:09;;;;;;;8.88;6.30;;;8.40;74.20;;;;;;5048745;28;20052;-66
2022/04/24 05:06:37;;;;;;;6.95;5.32;;;8.40;74.00;;;;;;5048663;28;20048;-66
2022/04/24 05:09:04;;;;;;;12.20;7.78;;;8.40;74.20;;;;;;5048857;28;20410;-66
2022/04/24 05:11:30;;;;;;;10.52;7.18;;;8.40;74.50;;;;;;5048105;28;20121;-66
2022/04/24 05:13:55;;;;;;;12.75;6.82;;;8.50;74.40;;;;;;5048330;28;20045;-67
2022/04/24 05:16:21;;;;;;;8.13;5.75;;;8.50;74.20;;;;;;5048015;28;20421;-67
2022/04/24 05:18:46;;;;;;;10.73;5.45;;;8.50;74.30;;;;;;5047766;28;20128;-67
2022/04/24 05:21:12;;;;;;;8.13;6.13;;;8.60;74.20;;;;;;5047000;28;20478;-67
2022/04/24 05:23:37;;;;;;;9.15;6.35;;;8.50;74.20;;;;;;5048466;28;20041;-66
2022/04/24 05:26:03;;;;;;;9.60;6.25;;;8.60;74.20;;;;;;5048573;28;20460;-66
2022/04/24 05:28:28;;;;;;;10.68;6.68;;;8.60;74.40;;;;;;5047575;28;20078;-68
2022/04/24 05:30:54;;;;;;;8.70;6.38;;;8.60;74.30;;;;;;5048217;28;20561;-67
2022/04/24 05:33:20;;;;;;;10.82;6.57;;;8.60;74.40;;;;;;5046972;28;20103;-67
2022/04/24 05:35:48;;;;;;;9.07;6.82;;;8.60;74.40;;;;;;5048487;28;20095;-66
2022/04/24 05:38:14;;;;;;;11.27;7.50;;;8.60;74.40;;;;;;5048164;28;20086;-67
2022/04/24 05:40:40;;;;;;;10.45;6.07;;;8.70;74.40;;;;;;5052271;28;20132;-66
2022/04/24 05:43:06;;;;;;;8.50;6.00;;;8.70;74.20;;;;;;5051719;28;20071;-66
2022/04/24 05:45:32;;;;;;;8.63;6.32;;;8.80;74.20;;;;;;5051946;28;20079;-66
2022/04/24 05:47:58;;;;;;;7.97;6.05;;;8.80;73.90;;;;;;5051980;28;20044;-66
2022/04/24 05:50:25;;;;;;;10.82;6.18;;;8.80;74.30;;;;;;5052296;28;20045;-66
2022/04/24 05:52:55;;;;;;;9.43;7.10;;;8.80;74.20;;;;;;5051790;28;20494;-66
2022/04/24 05:55:21;;;;;;;8.10;5.85;;;8.90;74.30;;;;;;5051925;28;20098;-66
2022/04/24 05:57:49;;;;;;;11.57;7.25;;;8.90;74.30;;;;;;5051191;28;20461;-66
2022/04/24 06:00:16;;;;;;;13.38;6.40;;;9.00;74.60;;;;;;5051729;28;20059;-66
2022/04/24 06:02:42;;;;;;;8.90;5.65;;;9.10;74.10;;;;;;5051735;28;20049;-66
2022/04/24 06:05:10;;;;;;;8.63;5.97;;;9.10;74.20;;;;;;5051715;28;20420;-66
2022/04/24 06:07:36;;;;;;;9.57;6.45;;;9.10;74.20;;;;;;5051052;28;20045;-67
2022/04/24 06:10:03;;;;;;;10.75;6.53;;;9.20;74.10;;;;;;5051400;28;20178;-67
2022/04/24 06:12:28;;;;;;;10.30;6.75;;;9.20;74.00;;;;;;5051201;28;20556;-67
2022/04/24 06:14:54;;;;;;;11.40;7.03;;;9.30;74.00;;;;;;5051490;28;20159;-66
2022/04/24 06:17:20;;;;;;;11.23;6.88;;;9.30;74.10;;;;;;5051219;28;20076;-65
2022/04/24 06:19:45;;;;;;;10.18;7.05;;;9.30;74.10;;;;;;5050767;28;20041;-66
2022/04/24 06:22:11;;;;;;;12.32;6.55;;;9.40;74.10;;;;;;5051119;28;20052;-66
2022/04/24 06:24:36;;;;;;;10.32;7.35;;;9.50;73.80;;;;;;5051311;28;20055;-66
2022/04/24 06:27:02;;;;;;;11.82;7.22;;;9.40;74.00;;;;;;5050552;28;20151;-67
2022/04/24 06:29:28;;;;;;;12.18;7.57;;;9.40;73.80;;;;;;5051125;28;20045;-67
2022/04/24 06:31:53;;;;;;;12.30;7.45;;;9.50;73.80;;;;;;5051126;28;20090;-66
2022/04/24 06:34:19;;;;;;;13.77;6.97;;;9.60;73.70;;;;;;5047916;28;20041;-66
2022/04/24 06:36:44;;;;;;;12.70;7.13;;;9.60;73.70;;;;;;5048679;28;20033;-66
2022/04/24 06:39:10;;;;;;;16.10;7.13;;;9.60;73.50;;;;;;5050511;28;20041;-66
2022/04/24 06:41:36;;;;;;;10.18;6.82;;;9.70;73.50;;;;;;5049838;28;20120;-66
2022/04/24 06:44:01;;;;;;;12.27;7.15;;;9.80;73.30;;;;;;5050233;28;20044;-67
2022/04/24 06:46:27;;;;;;;10.55;6.70;;;9.90;73.10;;;;;;5051084;28;20056;-66
2022/04/24 06:48:52;;;;;;;12.68;7.32;;;9.90;73.00;;;;;;5050190;28;20482;-67
2022/04/24 06:51:19;;;;;;;10.05;6.38;;;10.00;73.00;;;;;;5045390;28;20251;-66
2022/04/24 06:53:44;;;;;;;11.65;6.95;;;10.10;72.80;;;;;;5050541;28;20048;-67
2022/04/24 06:56:10;;;;;;;10.52;6.10;;;10.10;72.50;;;;;;5049729;28;20414;-66
2022/04/24 06:58:36;;;;;;;9.13;6.15;;;10.10;72.00;;;;;;5050695;28;20418;-66
2022/04/24 07:01:01;;;;;;;8.75;6.57;;;10.20;71.60;;;;;;5049993;28;20059;-66
2022/04/24 07:03:29;;;;;;;9.15;6.53;;;10.20;71.60;;;;;;5048497;28;20417;-66
2022/04/24 07:05:56;;;;;;;13.43;6.65;;;10.30;71.90;;;;;;5050711;28;20041;-67
2022/04/24 07:08:24;;;;;;;11.82;5.68;;;10.40;71.60;;;;;;5050700;28;20041;-66
2022/04/24 07:10:50;;;;;;;9.93;5.57;;;10.50;70.50;;;;;;5050168;28;20041;-66
2022/04/24 07:13:15;;;;;;;8.68;5.30;;;10.40;70.40;;;;;;5049639;28;20607;-66
2022/04/24 07:15:41;;;;;;;9.38;5.07;;;10.40;70.60;;;;;;5050448;28;20795;-65
2022/04/24 07:18:13;;;;;;;10.20;5.45;;;10.50;70.60;;;;;;5050329;28;20051;-66
2022/04/24 07:20:39;;;;;;;9.07;4.85;;;10.60;69.70;;;;;;5050114;28;20045;-66
2022/04/24 07:23:05;;;;;;;6.50;4.50;;;10.60;69.80;;;;;;5049385;28;20041;-66
2022/04/24 07:25:40;;;;;;;5.18;4.35;;;10.60;69.90;;;;;;5050069;28;20052;-65
2022/04/24 07:28:07;;;;;;;8.77;4.40;;;10.60;70.00;;;;;;5050085;28;20128;-65
2022/04/24 07:30:33;;;;;;;6.22;4.30;;;10.70;70.10;;;;;;5049271;28;20044;-65
2022/04/24 07:32:59;;;;;;;7.55;4.10;;;10.80;69.80;;;;;;5050083;28;20051;-65
2022/04/24 07:35:28;;;;;;;8.77;4.18;;;10.80;69.60;;;;;;5049333;28;20409;-65
2022/04/24 07:37:54;;;;;;;10.25;3.47;;;10.90;69.00;;;;;;5050027;28;20055;-66
2022/04/24 07:40:22;;;;;;;7.28;3.80;;;11.00;68.80;;;;;;5049897;28;20472;-66
2022/04/24 07:42:57;;;;;;;8.30;3.70;;;11.00;69.00;;;;;;5049208;28;20041;-66
2022/04/24 07:45:34;;;;;;;4.63;3.30;;;11.10;68.80;;;;;;5048184;28;20394;-65
2022/04/24 07:48:01;;;;;;;6.25;3.40;;;11.20;68.50;;;;;;5049473;28;20122;-66
2022/04/24 07:50:29;;;;;;;6.03;3.25;;;11.40;68.20;;;;;;5049742;28;20456;-65
2022/04/24 07:52:56;;;;;;;6.57;3.25;;;11.40;68.00;;;;;;5049624;28;20077;-65
2022/04/24 07:55:23;;;;;;;9.23;2.67;;;11.50;67.80;;;;;;5048874;28;20049;-65
2022/04/24 07:57:53;;;;;;;6.65;2.50;;;11.60;66.70;;;;;;5048986;28;20048;-65
2022/04/24 08:00:23;;;;;;;5.07;2.55;;;11.60;66.40;;;;;;5038947;28;20107;-65
2022/04/24 08:03:01;;;;;;;3.67;2.17;;;11.60;65.90;;;;;;5049012;28;20079;-65
2022/04/24 08:05:27;;;;;;;8.73;2.28;;;11.70;65.50;;;;;;5049398;28;20041;-65
2022/04/24 08:07:55;;;;;;;4.80;2.95;;;11.80;65.70;;;;;;5048670;28;20490;-67
2022/04/24 08:10:22;;;;;;;3.60;1.90;;;11.90;65.90;;;;;;5048927;28;20570;-66
2022/04/24 08:12:49;;;;;;;4.80;2.08;;;12.00;65.50;;;;;;5049134;28;20056;-65
2022/04/24 08:15:15;;;;;;;2.40;1.70;;;12.10;64.30;;;;;;5048041;28;20535;-66
2022/04/24 08:17:41;;;;;;;6.50;2.20;;;12.10;64.40;;;;;;5048927;28;20180;-66
2022/04/24 08:20:08;;;;;;;5.10;2.10;;;12.30;63.00;;;;;;5048846;28;20118;-66
2022/04/24 08:22:38;;;;;;;2.88;1.52;;;12.30;63.30;;;;;;5047654;28;20620;-65
2022/04/24 08:25:04;;;;;;;5.63;1.83;;;12.40;63.20;;;;;;5048862;28;20052;-66
2022/04/24 08:27:30;;;;;;;4.03;1.95;;;12.50;62.70;;;;;;5048809;28;20053;-66
2022/04/24 08:29:55;;;;;;;3.00;1.45;;;12.60;62.60;;;;;;5046883;28;20590;-66
2022/04/24 08:32:24;;;;;;;2.45;1.40;;;12.70;62.50;;;;;;5047549;28;20033;-65
2022/04/24 08:34:50;;;;;;;6.90;1.90;;;12.80;62.00;;;;;;5046765;28;20048;-65
2022/04/24 08:37:15;;;;;;;5.68;1.60;;;12.90;61.30;;;;;;5049109;28;20694;-65
2022/04/24 08:39:41;;;;;;;3.30;1.55;;;12.90;59.80;;;;;;5049019;28;20131;-65
2022/04/24 08:42:09;;;;;;;2.75;1.42;;;12.90;60.10;;;;;;5048634;28;20500;-65
2022/04/24 08:44:36;;;;;;;3.53;1.50;;;13.00;60.00;;;;;;5048888;28;20041;-65
2022/04/24 08:47:03;;;;;;;3.08;1.65;;;13.10;59.90;;;;;;5048682;28;20071;-66
2022/04/24 08:49:31;;;;;;;5.43;2.10;;;13.10;59.50;;;;;;5048065;28;20044;-65
2022/04/24 08:51:59;;;;;;;5.00;2.03;;;13.10;59.50;;;;;;5048802;28;20120;-65
2022/04/24 08:54:27;;;;;;;3.25;1.70;;;13.20;59.70;;;;;;5047938;28;20136;-65
2022/04/24 08:56:56;;;;;;;6.40;1.98;;;13.30;59.60;;;;;;5048266;28;20037;-65
2022/04/24 08:59:22;;;;;;;4.40;1.92;;;13.30;59.00;;;;;;5048439;28;20459;-65
2022/04/24 09:01:48;;;;;;;7.20;2.90;;;13.30;58.70;;;;;;5048767;28;20128;-66
2022/04/24 09:04:14;;;;;;;6.50;1.83;;;13.40;59.00;;;;;;5047888;28;20170;-65
2022/04/24 09:06:41;;;;;;;4.88;2.08;;;13.40;59.40;;;;;;5048535;28;20391;-66
2022/04/24 09:09:07;;;;;;;14.32;3.40;;;13.60;58.30;;;;;;5048572;28;20059;-66
2022/04/24 09:11:33;;;;;;;5.63;1.98;;;13.50;57.90;;;;;;5047687;28;20049;-66
2022/04/24 09:16:47;;;;;;;6.85;1.90;;;13.70;56.20;;;;;;5052835;28;20414;-66
2022/04/24 09:19:20;;;;;;;4.25;1.55;;;13.60;56.60;;;;;;5052187;28;20398;-66
2022/04/24 09:21:50;;;;;;;4.15;2.03;;;13.70;56.20;;;;;;5052282;28;20052;-66
2022/04/24 09:24:17;;;;;;;6.97;1.90;;;13.70;57.50;;;;;;5052146;28;20093;-66
2022/04/24 09:26:54;;;;;;;4.63;1.95;;;13.80;57.80;;;;;;5051652;28;20118;-66
2022/04/24 09:29:24;;;;;;;7.25;2.88;;;13.90;56.30;;;;;;5052445;28;20061;-65
2022/04/24 09:31:50;;;;;;;5.38;2.78;;;13.90;55.60;;;;;;5051744;28;20041;-65
2022/04/24 09:34:18;;;;;;;5.43;1.88;;;13.90;55.90;;;;;;5052271;28;20423;-66
2022/04/24 09:36:59;;;;;;;5.20;2.08;;;14.00;56.40;;;;;;5052500;28;20102;-64
2022/04/24 09:39:32;;;;;;;4.75;1.90;;;14.10;56.20;;;;;;5052073;28;20422;-66
2022/04/24 09:42:07;;;;;;;4.95;2.78;;;14.20;54.40;;;;;;5051671;28;20048;-66
2022/04/24 09:44:37;;;;;;;4.03;1.83;;;14.10;55.10;;;;;;5051249;28;20036;-66
2022/04/24 09:47:03;;;;;;;5.45;2.00;;;14.10;55.50;;;;;;5050358;28;20465;-66
2022/04/24 09:49:34;;;;;;;3.40;1.92;;;14.10;55.30;;;;;;5050090;28;20057;-65
2022/04/24 09:52:00;;;;;;;5.10;2.20;;;14.10;55.20;;;;;;5051767;28;20087;-65
2022/04/24 09:54:27;;;;;;;4.63;2.42;;;14.20;54.80;;;;;;5051793;28;20451;-65
2022/04/24 09:56:54;;;;;;;5.45;2.00;;;14.20;54.80;;;;;;5052000;28;20413;-66
2022/04/24 09:59:20;;;;;;;7.15;2.15;;;14.20;54.50;;;;;;5051459;28;20489;-66
2022/04/24 10:01:46;;;;;;;3.40;2.20;;;14.20;54.90;;;;;;5051143;28;20037;-66
2022/04/24 10:04:12;;;;;;;4.13;2.15;;;14.30;54.80;;;;;;5051622;28;20494;-66
2022/04/24 10:06:40;;;;;;;4.63;2.58;;;14.30;55.20;;;;;;5051532;28;20100;-66
2022/04/24 10:09:08;;;;;;;6.75;2.45;;;14.40;55.70;;;;;;5048446;28;20260;-65
2022/04/24 10:11:33;;;;;;;7.35;3.03;;;14.50;55.90;;;;;;5049999;28;20502;-65
2022/04/24 10:14:06;;;;;;;5.80;2.45;;;14.60;55.90;;;;;;5051631;28;20143;-66
2022/04/24 10:17:01;;;;;;;4.65;2.47;;;14.60;55.20;;;;;;5050925;28;20067;-65
2022/04/24 10:19:55;;;;;;;5.35;2.47;;;14.60;53.50;;;;;;5051225;28;20060;-65
2022/04/24 10:22:34;;;;;;;4.63;1.92;;;14.50;54.20;;;;;;5033515;28;20086;-66
2022/04/24 10:25:01;;;;;;;9.60;2.72;;;14.50;55.00;;;;;;5051302;28;20073;-66
2022/04/24 10:27:40;;;;;;;7.05;2.85;;;14.50;54.60;;;;;;5050903;28;20098;-66
2022/04/24 10:30:07;;;;;;;5.28;2.42;;;14.50;54.20;;;;;;5050993;28;20049;-65
2022/04/24 10:32:33;;;;;;;4.68;2.10;;;14.50;54.50;;;;;;5051059;28;20127;-65
2022/04/24 10:34:59;;;;;;;4.35;1.73;;;14.60;53.40;;;;;;5050378;28;20128;-65
2022/04/24 10:37:34;;;;;;;6.22;2.63;;;14.60;52.50;;;;;;5050498;28;20029;-66
2022/04/24 10:40:00;;;;;;;5.50;2.50;;;14.60;53.30;;;;;;5050954;28;20135;-65
2022/04/24 10:42:34;;;;;;;3.63;2.30;;;14.60;53.20;;;;;;5049396;28;20072;-65
2022/04/24 10:45:09;;;;;;;4.68;2.17;;;14.70;53.30;;;;;;5051077;28;20402;-65
2022/04/24 10:47:46;;;;;;;8.63;3.60;;;14.70;54.60;;;;;;5050990;28;20044;-66
2022/04/24 10:50:13;;;;;;;6.20;3.67;;;14.90;55.00;;;;;;5050572;28;20044;-65
2022/04/24 10:52:40;;;;;;;6.57;2.40;;;14.80;55.80;;;;;;5050388;28;20051;-66
2022/04/24 10:55:16;;;;;;;6.78;3.28;;;14.90;54.80;;;;;;5050662;28;20094;-66
2022/04/24 10:57:50;;;;;;;8.27;3.17;;;14.90;55.20;;;;;;5049738;28;20123;-66
2022/04/24 11:00:22;;;;;;;4.47;2.35;;;14.90;56.90;;;;;;5050689;28;20119;-66
2022/04/24 11:02:48;;;;;;;;;;;14.90;56.50;;;;;;5050737;28;20060;-66
2022/04/24 11:05:20;;;;;;;8.18;3.00;;;14.80;56.80;;;;;;5050756;28;19921;-66
2022/04/24 11:07:46;;;;;;;7.43;2.85;;;14.80;56.70;;;;;;5050871;28;20052;-66
2022/04/24 11:10:14;;;;;;;5.82;3.00;;;14.90;56.80;;;;;;5050426;28;20521;-66
2022/04/24 11:12:40;;;;;;;4.95;2.85;;;14.90;56.70;;;;;;5048911;28;20501;-66
2022/04/24 11:15:11;;;;;;;7.40;3.42;;;14.80;56.70;;;;;;5049952;28;20053;-66
2022/04/24 11:17:38;;;;;;;10.52;3.88;;;14.80;57.20;;;;;;5050463;28;20083;-66
2022/04/24 11:20:09;;;;;;;12.63;3.00;;;14.80;57.30;;;;;;5049144;28;20044;-66
2022/04/24 11:22:53;;;;;;;6.63;3.03;;;14.80;58.00;;;;;;5049011;28;20127;-66
2022/04/24 11:25:22;;;;;;;7.75;2.80;;;15.00;57.30;;;;;;5049914;28;20045;-66
2022/04/24 11:28:06;;;;;;;8.20;2.88;;;14.90;57.90;;;;;;5047603;28;20666;-63
2022/04/24 11:30:33;;;;;;;7.88;3.20;;;15.10;56.30;;;;;;5050249;28;20048;-64
2022/04/24 11:33:05;;;;;;;5.07;2.70;;;15.10;56.00;;;;;;5050335;28;20044;-64
2022/04/24 11:35:35;;;;;;;11.18;3.10;;;15.10;56.70;;;;;;5049911;28;20048;-63
2022/04/24 11:38:01;;;;;;;7.18;3.53;;;15.10;56.80;;;;;;5049566;28;20037;-63
2022/04/24 11:40:28;;;;;;;9.23;2.92;;;15.10;57.20;;;;;;5045568;28;20094;-66
2022/04/24 11:43:02;;;;;;;10.00;3.55;;;15.20;55.80;;;;;;5049957;28;20497;-66
2022/04/24 11:51:16;;;;;;;8.35;3.63;;;15.00;57.70;;;;;;5049952;28;20052;-66
2022/04/24 11:53:42;;;;;;;9.38;4.53;;;14.90;58.10;;;;;;5049000;28;20763;-67
2022/04/24 11:56:12;;;;;;;7.40;2.88;;;15.00;57.90;;;;;;5049467;28;20037;-66
2022/04/24 11:58:39;;;;;;;8.85;3.65;;;14.90;57.20;;;;;;5049634;28;20045;-66
2022/04/24 12:01:10;;;;;;;9.02;4.07;;;14.80;57.50;;;;;;5049393;28;20166;-65
2022/04/24 12:03:37;;;;;;;12.75;4.45;;;14.70;57.40;;;;;;5049569;28;20130;-64
2022/04/24 12:06:07;;;;;;;7.55;3.10;;;14.70;57.60;;;;;;5049155;28;20385;-65
2022/04/24 12:08:49;;;;;;;10.60;5.13;;;14.80;57.40;;;;;;5049406;28;20045;-67
2022/04/24 12:11:31;;;;;;;6.53;3.58;;;14.80;56.90;;;;;;5048015;28;20064;-64
2022/04/24 12:13:59;;;;;;;9.85;3.90;;;14.80;57.00;;;;;;5045261;28;20049;-65
2022/04/24 12:16:24;;;;;;;10.32;3.90;;;14.80;57.50;;;;;;5049072;28;20045;-66
2022/04/24 12:18:55;;;;;;;6.18;3.60;;;14.90;57.60;;;;;;5049192;28;20159;-67
2022/04/24 12:21:21;;;;;;;8.32;3.53;;;14.90;57.50;;;;;;5048299;28;20045;-66
2022/04/24 12:23:51;;;;;;;10.35;3.83;;;14.80;57.70;;;;;;5047475;28;20508;-66
2022/04/24 12:26:17;;;;;;;9.07;4.30;;;14.90;56.80;;;;;;5048650;28;20122;-66
2022/04/24 12:28:43;;;;;;;5.38;3.28;;;14.90;57.20;;;;;;5049032;28;20659;-66
2022/04/24 12:31:24;;;;;;;10.07;3.95;;;14.80;58.10;;;;;;5048956;28;20123;-66
2022/04/24 12:33:52;;;;;;;9.73;4.03;;;14.80;58.40;;;;;;5048101;28;20053;-66
2022/04/24 12:36:19;;;;;;;6.35;2.95;;;14.80;58.50;;;;;;5049203;28;20052;-66
2022/04/24 12:39:08;;;;;;;7.05;3.28;;;14.90;58.40;;;;;;5048384;28;20045;-66
2022/04/24 12:41:37;;;;;;;7.93;3.22;;;14.80;57.50;;;;;;5048893;28;20053;-67
2022/04/24 12:44:05;;;;;;;7.18;3.53;;;14.80;57.70;;;;;;5049005;28;20548;-66
2022/04/24 12:46:32;;;;;;;7.07;3.58;;;14.90;57.80;;;;;;5048942;28;20099;-66
2022/04/24 12:48:58;;;;;;;9.57;3.63;;;15.00;57.80;;;;;;5046971;28;20490;-66
2022/04/24 12:51:25;;;;;;;6.90;3.47;;;14.90;57.20;;;;;;5048524;28;20041;-66
2022/04/24 12:53:52;;;;;;;10.82;4.80;;;15.00;55.80;;;;;;5048808;28;20047;-66
2022/04/24 12:56:18;;;;;;;8.05;3.95;;;15.00;56.40;;;;;;5048851;28;20481;-66
2022/04/24 12:58:45;;;;;;;7.57;3.58;;;14.90;57.10;;;;;;5048576;28;20111;-67